sensor_id;sensor_type;location;lat;lon;timestamp;P1;durP1;ratioP1;P2;durP2;ratioP2
35909;SDS011;22004;49.120;-0.200;2023-07-20T00:00:11;9.43;;;2.92;;
35909;SDS011;22004;49.120;-0.200;2023-07-20T00:02:38;9.10;;;3.08;;
35909;SDS011;22004;49.120;-0.200;2023-07-20T00:05:04;5.78;;;2.40;;
35909;SDS011;22004;49.120;-0.200;2023-07-20T00:07:30;5.25;;;2.42;;
35909;SDS011;22004;49.120;-0.200;2023-07-20T00:09:55;6.57;;;2.20;;
35909;SDS011;22004;49.120;-0.200;2023-07-20T00:12:20;8.75;;;2.25;;
35909;SDS011;22004;49.120;-0.200;2023-07-20T00:14:45;6.75;;;2.55;;
35909;SDS011;22004;49.120;-0.200;2023-07-20T00:17:11;4.60;;;2.10;;
35909;SDS011;22004;49.120;-0.200;2023-07-20T00:19:36;5.05;;;2.53;;
35909;SDS011;22004;49.120;-0.200;2023-07-20T00:22:01;4.80;;;2.42;;
35909;SDS011;22004;49.120;-0.200;2023-07-20T00:24:29;3.80;;;2.30;;
35909;SDS011;22004;49.120;-0.200;2023-07-20T00:26:55;6.60;;;2.20;;
35909;SDS011;22004;49.120;-0.200;2023-07-20T00:29:20;7.07;;;2.38;;
35909;SDS011;22004;49.120;-0.200;2023-07-20T00:31:45;4.88;;;2.50;;
35909;SDS011;22004;49.120;-0.200;2023-07-20T00:34:11;5.80;;;2.42;;
35909;SDS011;22004;49.120;-0.200;2023-07-20T00:36:36;5.28;;;2.38;;
35909;SDS011;22004;49.120;-0.200;2023-07-20T00:39:02;5.65;;;2.40;;
35909;SDS011;22004;49.120;-0.200;2023-07-20T00:41:28;4.63;;;2.30;;
35909;SDS011;22004;49.120;-0.200;2023-07-20T00:43:54;3.95;;;2.10;;
35909;SDS011;22004;49.120;-0.200;2023-07-20T00:46:20;5.60;;;2.53;;
35909;SDS011;22004;49.120;-0.200;2023-07-20T00:48:49;6.47;;;2.38;;
35909;SDS011;22004;49.120;-0.200;2023-07-20T00:51:15;6.75;;;2.38;;
35909;SDS011;22004;49.120;-0.200;2023-07-20T00:53:40;6.65;;;2.75;;
35909;SDS011;22004;49.120;-0.200;2023-07-20T00:56:06;4.30;;;2.20;;
35909;SDS011;22004;49.120;-0.200;2023-07-20T00:58:33;7.22;;;2.60;;
35909;SDS011;22004;49.120;-0.200;2023-07-20T01:00:58;5.80;;;2.72;;
35909;SDS011;22004;49.120;-0.200;2023-07-20T01:03:24;6.95;;;2.28;;
35909;SDS011;22004;49.120;-0.200;2023-07-20T01:08:35;7.15;;;2.97;;
35909;SDS011;22004;49.120;-0.200;2023-07-20T01:11:22;6.15;;;2.17;;
35909;SDS011;22004;49.120;-0.200;2023-07-20T01:14:04;4.13;;;2.58;;
35909;SDS011;22004;49.120;-0.200;2023-07-20T01:16:30;5.38;;;2.42;;
35909;SDS011;22004;49.120;-0.200;2023-07-20T01:18:55;5.22;;;2.55;;
35909;SDS011;22004;49.120;-0.200;2023-07-20T01:21:22;5.07;;;2.90;;
35909;SDS011;22004;49.120;-0.200;2023-07-20T01:26:37;5.25;;;2.55;;
35909;SDS011;22004;49.120;-0.200;2023-07-20T01:32:04;6.13;;;2.22;;
35909;SDS011;22004;49.120;-0.200;2023-07-20T01:34:34;6.65;;;2.70;;
35909;SDS011;22004;49.120;-0.200;2023-07-20T01:37:01;8.13;;;2.65;;
35909;SDS011;22004;49.120;-0.200;2023-07-20T01:39:28;3.65;;;2.38;;
35909;SDS011;22004;49.120;-0.200;2023-07-20T01:41:54;4.40;;;2.33;;
35909;SDS011;22004;49.120;-0.200;2023-07-20T01:44:20;3.92;;;2.35;;
35909;SDS011;22004;49.120;-0.200;2023-07-20T01:46:46;5.70;;;2.88;;
35909;SDS011;22004;49.120;-0.200;2023-07-20T01:49:11;6.45;;;2.70;;
35909;SDS011;22004;49.120;-0.200;2023-07-20T01:51:36;6.95;;;2.42;;
35909;SDS011;22004;49.120;-0.200;2023-07-20T01:54:02;5.38;;;2.30;;
35909;SDS011;22004;49.120;-0.200;2023-07-20T01:56:27;4.03;;;2.30;;
35909;SDS011;22004;49.120;-0.200;2023-07-20T01:58:52;6.13;;;2.42;;
35909;SDS011;22004;49.120;-0.200;2023-07-20T02:01:18;9.10;;;2.45;;
35909;SDS011;22004;49.120;-0.200;2023-07-20T02:03:43;5.10;;;2.60;;
35909;SDS011;22004;49.120;-0.200;2023-07-20T02:06:09;7.78;;;2.55;;
35909;SDS011;22004;49.120;-0.200;2023-07-20T02:08:34;4.25;;;2.35;;
35909;SDS011;22004;49.120;-0.200;2023-07-20T02:10:59;6.35;;;2.92;;
35909;SDS011;22004;49.120;-0.200;2023-07-20T02:13:25;5.05;;;3.08;;
35909;SDS011;22004;49.120;-0.200;2023-07-20T02:15:50;5.70;;;2.63;;
35909;SDS011;22004;49.120;-0.200;2023-07-20T02:18:16;6.20;;;2.83;;
35909;SDS011;22004;49.120;-0.200;2023-07-20T02:20:41;5.90;;;2.50;;
35909;SDS011;22004;49.120;-0.200;2023-07-20T02:23:07;5.95;;;2.70;;
35909;SDS011;22004;49.120;-0.200;2023-07-20T02:25:32;6.07;;;2.70;;
35909;SDS011;22004;49.120;-0.200;2023-07-20T02:27:57;6.07;;;3.08;;
35909;SDS011;22004;49.120;-0.200;2023-07-20T02:30:23;4.90;;;2.50;;
35909;SDS011;22004;49.120;-0.200;2023-07-20T02:32:49;7.40;;;3.10;;
35909;SDS011;22004;49.120;-0.200;2023-07-20T02:35:15;8.52;;;3.20;;
35909;SDS011;22004;49.120;-0.200;2023-07-20T02:37:40;6.28;;;3.30;;
35909;SDS011;22004;49.120;-0.200;2023-07-20T02:40:06;5.25;;;2.78;;
35909;SDS011;22004;49.120;-0.200;2023-07-20T02:42:32;5.47;;;2.75;;
35909;SDS011;22004;49.120;-0.200;2023-07-20T02:44:58;5.13;;;2.75;;
35909;SDS011;22004;49.120;-0.200;2023-07-20T02:47:23;6.00;;;3.13;;
35909;SDS011;22004;49.120;-0.200;2023-07-20T02:49:48;5.15;;;2.90;;
35909;SDS011;22004;49.120;-0.200;2023-07-20T02:52:14;7.25;;;3.00;;
35909;SDS011;22004;49.120;-0.200;2023-07-20T02:54:39;7.80;;;3.10;;
35909;SDS011;22004;49.120;-0.200;2023-07-20T02:57:05;5.45;;;3.25;;
35909;SDS011;22004;49.120;-0.200;2023-07-20T02:59:30;6.88;;;2.53;;
35909;SDS011;22004;49.120;-0.200;2023-07-20T03:01:56;10.95;;;4.28;;
35909;SDS011;22004;49.120;-0.200;2023-07-20T03:04:22;8.05;;;3.28;;
35909;SDS011;22004;49.120;-0.200;2023-07-20T03:06:48;5.18;;;2.90;;
35909;SDS011;22004;49.120;-0.200;2023-07-20T03:09:13;8.40;;;2.90;;
35909;SDS011;22004;49.120;-0.200;2023-07-20T03:11:40;5.78;;;2.88;;
35909;SDS011;22004;49.120;-0.200;2023-07-20T03:14:05;7.60;;;2.75;;
35909;SDS011;22004;49.120;-0.200;2023-07-20T03:16:31;6.25;;;3.15;;
35909;SDS011;22004;49.120;-0.200;2023-07-20T03:18:58;7.45;;;2.97;;
35909;SDS011;22004;49.120;-0.200;2023-07-20T03:21:24;9.80;;;3.33;;
35909;SDS011;22004;49.120;-0.200;2023-07-20T03:23:50;7.82;;;3.22;;
35909;SDS011;22004;49.120;-0.200;2023-07-20T03:26:15;6.30;;;3.00;;
35909;SDS011;22004;49.120;-0.200;2023-07-20T03:28:41;6.10;;;2.83;;
35909;SDS011;22004;49.120;-0.200;2023-07-20T03:31:06;8.38;;;2.80;;
35909;SDS011;22004;49.120;-0.200;2023-07-20T03:33:31;9.00;;;3.10;;
35909;SDS011;22004;49.120;-0.200;2023-07-20T03:35:58;6.85;;;3.15;;
35909;SDS011;22004;49.120;-0.200;2023-07-20T03:38:24;5.47;;;2.90;;
35909;SDS011;22004;49.120;-0.200;2023-07-20T03:43:16;6.70;;;2.90;;
35909;SDS011;22004;49.120;-0.200;2023-07-20T03:45:41;9.75;;;3.03;;
35909;SDS011;22004;49.120;-0.200;2023-07-20T03:48:07;7.55;;;3.28;;
35909;SDS011;22004;49.120;-0.200;2023-07-20T03:50:32;5.03;;;2.60;;
35909;SDS011;22004;49.120;-0.200;2023-07-20T03:52:58;10.52;;;3.20;;
35909;SDS011;22004;49.120;-0.200;2023-07-20T03:55:23;10.45;;;3.03;;
35909;SDS011;22004;49.120;-0.200;2023-07-20T03:57:48;8.25;;;3.10;;
35909;SDS011;22004;49.120;-0.200;2023-07-20T04:00:15;9.13;;;2.90;;
35909;SDS011;22004;49.120;-0.200;2023-07-20T04:02:42;9.35;;;2.92;;
35909;SDS011;22004;49.120;-0.200;2023-07-20T04:05:07;8.43;;;2.97;;
35909;SDS011;22004;49.120;-0.200;2023-07-20T04:07:33;6.85;;;3.00;;
35909;SDS011;22004;49.120;-0.200;2023-07-20T04:09:58;26.15;;;3.88;;
35909;SDS011;22004;49.120;-0.200;2023-07-20T04:12:24;6.47;;;2.47;;
35909;SDS011;22004;49.120;-0.200;2023-07-20T04:14:49;5.32;;;2.92;;
35909;SDS011;22004;49.120;-0.200;2023-07-20T04:17:14;5.10;;;2.90;;
35909;SDS011;22004;49.120;-0.200;2023-07-20T04:19:40;8.18;;;2.90;;
35909;SDS011;22004;49.120;-0.200;2023-07-20T04:22:05;7.25;;;3.30;;
35909;SDS011;22004;49.120;-0.200;2023-07-20T04:24:30;5.28;;;2.95;;
35909;SDS011;22004;49.120;-0.200;2023-07-20T04:26:56;6.60;;;2.72;;
35909;SDS011;22004;49.120;-0.200;2023-07-20T04:29:21;9.13;;;3.15;;
35909;SDS011;22004;49.120;-0.200;2023-07-20T04:31:46;7.38;;;3.42;;
35909;SDS011;22004;49.120;-0.200;2023-07-20T04:34:12;6.32;;;2.75;;
35909;SDS011;22004;49.120;-0.200;2023-07-20T04:36:37;7.40;;;2.88;;
35909;SDS011;22004;49.120;-0.200;2023-07-20T04:39:03;6.60;;;3.00;;
35909;SDS011;22004;49.120;-0.200;2023-07-20T04:41:29;5.15;;;2.97;;
35909;SDS011;22004;49.120;-0.200;2023-07-20T04:43:55;6.68;;;2.83;;
35909;SDS011;22004;49.120;-0.200;2023-07-20T04:46:20;4.55;;;2.88;;
35909;SDS011;22004;49.120;-0.200;2023-07-20T04:48:46;7.45;;;2.65;;
35909;SDS011;22004;49.120;-0.200;2023-07-20T04:51:12;7.30;;;2.85;;
35909;SDS011;22004;49.120;-0.200;2023-07-20T04:53:38;5.47;;;2.70;;
35909;SDS011;22004;49.120;-0.200;2023-07-20T04:56:03;5.30;;;2.92;;
35909;SDS011;22004;49.120;-0.200;2023-07-20T04:58:29;6.63;;;2.63;;
35909;SDS011;22004;49.120;-0.200;2023-07-20T05:00:54;5.70;;;2.65;;
35909;SDS011;22004;49.120;-0.200;2023-07-20T05:03:20;9.27;;;2.72;;
35909;SDS011;22004;49.120;-0.200;2023-07-20T05:05:46;8.73;;;3.15;;
35909;SDS011;22004;49.120;-0.200;2023-07-20T05:08:13;7.30;;;2.85;;
35909;SDS011;22004;49.120;-0.200;2023-07-20T05:10:38;7.35;;;3.20;;
35909;SDS011;22004;49.120;-0.200;2023-07-20T05:13:04;6.53;;;2.95;;
35909;SDS011;22004;49.120;-0.200;2023-07-20T05:15:29;6.10;;;3.28;;
35909;SDS011;22004;49.120;-0.200;2023-07-20T05:17:55;5.35;;;3.03;;
35909;SDS011;22004;49.120;-0.200;2023-07-20T05:20:20;6.40;;;3.10;;
35909;SDS011;22004;49.120;-0.200;2023-07-20T05:22:46;10.07;;;3.10;;
35909;SDS011;22004;49.120;-0.200;2023-07-20T05:25:11;5.65;;;3.28;;
35909;SDS011;22004;49.120;-0.200;2023-07-20T05:27:37;9.63;;;4.10;;
35909;SDS011;22004;49.120;-0.200;2023-07-20T05:30:03;6.88;;;3.35;;
35909;SDS011;22004;49.120;-0.200;2023-07-20T05:32:29;7.60;;;3.10;;
35909;SDS011;22004;49.120;-0.200;2023-07-20T05:34:54;9.80;;;3.90;;
35909;SDS011;22004;49.120;-0.200;2023-07-20T05:37:20;7.47;;;2.78;;
35909;SDS011;22004;49.120;-0.200;2023-07-20T05:39:46;9.35;;;2.80;;
35909;SDS011;22004;49.120;-0.200;2023-07-20T05:42:11;7.47;;;3.65;;
35909;SDS011;22004;49.120;-0.200;2023-07-20T05:44:36;8.13;;;3.25;;
35909;SDS011;22004;49.120;-0.200;2023-07-20T05:47:02;7.18;;;3.20;;
35909;SDS011;22004;49.120;-0.200;2023-07-20T05:49:27;8.70;;;3.40;;
35909;SDS011;22004;49.120;-0.200;2023-07-20T05:51:54;5.78;;;3.70;;
35909;SDS011;22004;49.120;-0.200;2023-07-20T05:54:20;9.35;;;3.47;;
35909;SDS011;22004;49.120;-0.200;2023-07-20T05:56:46;5.25;;;3.28;;
35909;SDS011;22004;49.120;-0.200;2023-07-20T05:59:12;9.23;;;3.38;;
35909;SDS011;22004;49.120;-0.200;2023-07-20T06:01:37;8.85;;;3.13;;
35909;SDS011;22004;49.120;-0.200;2023-07-20T06:04:02;6.93;;;3.00;;
35909;SDS011;22004;49.120;-0.200;2023-07-20T06:06:28;7.13;;;3.28;;
35909;SDS011;22004;49.120;-0.200;2023-07-20T06:08:54;6.28;;;2.88;;
35909;SDS011;22004;49.120;-0.200;2023-07-20T06:11:19;5.45;;;3.20;;
35909;SDS011;22004;49.120;-0.200;2023-07-20T06:13:45;10.30;;;3.90;;
35909;SDS011;22004;49.120;-0.200;2023-07-20T06:16:10;8.25;;;3.25;;
35909;SDS011;22004;49.120;-0.200;2023-07-20T06:18:36;7.53;;;3.35;;
35909;SDS011;22004;49.120;-0.200;2023-07-20T06:21:01;6.18;;;3.05;;
35909;SDS011;22004;49.120;-0.200;2023-07-20T06:23:26;11.77;;;4.05;;
35909;SDS011;22004;49.120;-0.200;2023-07-20T06:25:52;6.05;;;3.35;;
35909;SDS011;22004;49.120;-0.200;2023-07-20T06:28:17;5.70;;;3.08;;
35909;SDS011;22004;49.120;-0.200;2023-07-20T06:30:43;7.05;;;3.47;;
35909;SDS011;22004;49.120;-0.200;2023-07-20T06:33:08;4.68;;;2.88;;
35909;SDS011;22004;49.120;-0.200;2023-07-20T06:35:34;5.90;;;2.92;;
35909;SDS011;22004;49.120;-0.200;2023-07-20T06:38:00;4.57;;;2.65;;
35909;SDS011;22004;49.120;-0.200;2023-07-20T06:40:26;7.07;;;3.17;;
35909;SDS011;22004;49.120;-0.200;2023-07-20T06:42:51;4.57;;;2.95;;
35909;SDS011;22004;49.120;-0.200;2023-07-20T06:45:17;8.50;;;3.28;;
35909;SDS011;22004;49.120;-0.200;2023-07-20T06:47:42;9.27;;;3.67;;
35909;SDS011;22004;49.120;-0.200;2023-07-20T06:50:08;8.13;;;3.05;;
35909;SDS011;22004;49.120;-0.200;2023-07-20T06:52:34;9.13;;;3.60;;
35909;SDS011;22004;49.120;-0.200;2023-07-20T06:54:59;7.93;;;3.60;;
35909;SDS011;22004;49.120;-0.200;2023-07-20T06:57:25;8.75;;;3.28;;
35909;SDS011;22004;49.120;-0.200;2023-07-20T06:59:50;10.15;;;3.75;;
35909;SDS011;22004;49.120;-0.200;2023-07-20T07:02:16;10.48;;;4.57;;
35909;SDS011;22004;49.120;-0.200;2023-07-20T07:04:41;8.75;;;4.00;;
35909;SDS011;22004;49.120;-0.200;2023-07-20T07:07:07;10.00;;;5.40;;
35909;SDS011;22004;49.120;-0.200;2023-07-20T07:09:33;7.90;;;3.72;;
35909;SDS011;22004;49.120;-0.200;2023-07-20T07:11:59;5.63;;;3.42;;
35909;SDS011;22004;49.120;-0.200;2023-07-20T07:14:24;9.95;;;5.57;;
35909;SDS011;22004;49.120;-0.200;2023-07-20T07:16:49;15.00;;;6.32;;
35909;SDS011;22004;49.120;-0.200;2023-07-20T07:19:15;14.50;;;6.07;;
35909;SDS011;22004;49.120;-0.200;2023-07-20T07:21:40;11.95;;;4.20;;
35909;SDS011;22004;49.120;-0.200;2023-07-20T07:24:05;10.25;;;5.28;;
35909;SDS011;22004;49.120;-0.200;2023-07-20T07:26:32;18.88;;;6.43;;
35909;SDS011;22004;49.120;-0.200;2023-07-20T07:28:58;12.30;;;6.50;;
35909;SDS011;22004;49.120;-0.200;2023-07-20T07:31:28;13.35;;;6.10;;
35909;SDS011;22004;49.120;-0.200;2023-07-20T07:33:55;12.45;;;6.15;;
35909;SDS011;22004;49.120;-0.200;2023-07-20T07:36:20;11.93;;;5.30;;
35909;SDS011;22004;49.120;-0.200;2023-07-20T07:38:45;14.65;;;5.35;;
35909;SDS011;22004;49.120;-0.200;2023-07-20T07:41:11;13.10;;;6.10;;
35909;SDS011;22004;49.120;-0.200;2023-07-20T07:43:36;15.45;;;5.30;;
35909;SDS011;22004;49.120;-0.200;2023-07-20T07:46:03;9.88;;;3.97;;
35909;SDS011;22004;49.120;-0.200;2023-07-20T07:48:28;12.48;;;4.72;;
35909;SDS011;22004;49.120;-0.200;2023-07-20T07:50:54;7.55;;;3.67;;
35909;SDS011;22004;49.120;-0.200;2023-07-20T07:53:19;7.15;;;3.25;;
35909;SDS011;22004;49.120;-0.200;2023-07-20T07:55:47;10.60;;;4.90;;
35909;SDS011;22004;49.120;-0.200;2023-07-20T07:58:13;12.52;;;4.25;;
35909;SDS011;22004;49.120;-0.200;2023-07-20T08:00:39;12.55;;;4.38;;
35909;SDS011;22004;49.120;-0.200;2023-07-20T08:03:05;13.10;;;4.70;;
35909;SDS011;22004;49.120;-0.200;2023-07-20T08:05:32;12.13;;;4.00;;
35909;SDS011;22004;49.120;-0.200;2023-07-20T08:07:58;11.45;;;4.32;;
35909;SDS011;22004;49.120;-0.200;2023-07-20T08:10:23;15.85;;;4.00;;
35909;SDS011;22004;49.120;-0.200;2023-07-20T08:12:49;15.07;;;3.78;;
35909;SDS011;22004;49.120;-0.200;2023-07-20T08:15:14;11.63;;;3.60;;
35909;SDS011;22004;49.120;-0.200;2023-07-20T08:17:40;13.10;;;4.05;;
35909;SDS011;22004;49.120;-0.200;2023-07-20T08:20:08;11.30;;;3.33;;
35909;SDS011;22004;49.120;-0.200;2023-07-20T08:22:37;14.18;;;3.88;;
35909;SDS011;22004;49.120;-0.200;2023-07-20T08:25:02;15.02;;;4.00;;
35909;SDS011;22004;49.120;-0.200;2023-07-20T08:27:28;10.27;;;3.28;;
35909;SDS011;22004;49.120;-0.200;2023-07-20T08:29:54;12.07;;;4.15;;
35909;SDS011;22004;49.120;-0.200;2023-07-20T08:32:19;7.70;;;3.33;;
35909;SDS011;22004;49.120;-0.200;2023-07-20T08:34:44;11.35;;;3.78;;
35909;SDS011;22004;49.120;-0.200;2023-07-20T08:37:10;7.90;;;3.45;;
35909;SDS011;22004;49.120;-0.200;2023-07-20T08:39:36;10.05;;;3.70;;
35909;SDS011;22004;49.120;-0.200;2023-07-20T08:42:01;8.63;;;3.38;;
35909;SDS011;22004;49.120;-0.200;2023-07-20T08:44:29;8.10;;;2.88;;
35909;SDS011;22004;49.120;-0.200;2023-07-20T08:46:56;15.82;;;3.58;;
35909;SDS011;22004;49.120;-0.200;2023-07-20T08:49:22;13.38;;;3.75;;
35909;SDS011;22004;49.120;-0.200;2023-07-20T08:51:48;10.93;;;3.08;;
35909;SDS011;22004;49.120;-0.200;2023-07-20T08:54:13;12.13;;;3.20;;
35909;SDS011;22004;49.120;-0.200;2023-07-20T08:56:39;11.07;;;2.80;;
35909;SDS011;22004;49.120;-0.200;2023-07-20T08:59:06;9.55;;;2.83;;
35909;SDS011;22004;49.120;-0.200;2023-07-20T09:01:33;10.05;;;2.67;;
35909;SDS011;22004;49.120;-0.200;2023-07-20T09:04:01;6.30;;;2.58;;
35909;SDS011;22004;49.120;-0.200;2023-07-20T09:06:26;12.85;;;2.53;;
35909;SDS011;22004;49.120;-0.200;2023-07-20T09:08:52;8.32;;;2.72;;
35909;SDS011;22004;49.120;-0.200;2023-07-20T09:11:17;11.93;;;3.03;;
35909;SDS011;22004;49.120;-0.200;2023-07-20T09:13:42;9.32;;;2.83;;
35909;SDS011;22004;49.120;-0.200;2023-07-20T09:16:08;6.50;;;2.13;;
35909;SDS011;22004;49.120;-0.200;2023-07-20T09:18:38;7.38;;;2.60;;
35909;SDS011;22004;49.120;-0.200;2023-07-20T09:21:04;7.57;;;2.47;;
35909;SDS011;22004;49.120;-0.200;2023-07-20T09:26:00;17.52;;;2.40;;
35909;SDS011;22004;49.120;-0.200;2023-07-20T09:28:41;5.38;;;1.90;;
35909;SDS011;22004;49.120;-0.200;2023-07-20T09:31:18;7.38;;;2.33;;
35909;SDS011;22004;49.120;-0.200;2023-07-20T09:33:45;5.38;;;1.75;;
35909;SDS011;22004;49.120;-0.200;2023-07-20T09:36:11;11.07;;;2.28;;
35909;SDS011;22004;49.120;-0.200;2023-07-20T09:38:37;9.75;;;2.25;;
35909;SDS011;22004;49.120;-0.200;2023-07-20T09:41:06;8.07;;;1.92;;
35909;SDS011;22004;49.120;-0.200;2023-07-20T09:43:33;6.53;;;2.03;;
35909;SDS011;22004;49.120;-0.200;2023-07-20T09:45:59;5.75;;;1.85;;
35909;SDS011;22004;49.120;-0.200;2023-07-20T09:48:25;5.43;;;1.92;;
35909;SDS011;22004;49.120;-0.200;2023-07-20T09:50:51;6.70;;;1.65;;
35909;SDS011;22004;49.120;-0.200;2023-07-20T09:53:17;7.38;;;1.50;;
35909;SDS011;22004;49.120;-0.200;2023-07-20T09:55:47;6.07;;;2.13;;
35909;SDS011;22004;49.120;-0.200;2023-07-20T09:58:13;6.75;;;1.60;;
35909;SDS011;22004;49.120;-0.200;2023-07-20T10:00:40;9.52;;;1.75;;
35909;SDS011;22004;49.120;-0.200;2023-07-20T10:03:13;6.10;;;1.58;;
35909;SDS011;22004;49.120;-0.200;2023-07-20T10:05:51;5.82;;;2.00;;
35909;SDS011;22004;49.120;-0.200;2023-07-20T10:08:23;6.97;;;1.70;;
35909;SDS011;22004;49.120;-0.200;2023-07-20T10:10:50;6.05;;;2.35;;
35909;SDS011;22004;49.120;-0.200;2023-07-20T10:13:21;3.97;;;1.63;;
35909;SDS011;22004;49.120;-0.200;2023-07-20T10:18:30;7.25;;;2.05;;
35909;SDS011;22004;49.120;-0.200;2023-07-20T10:21:01;6.45;;;2.00;;
35909;SDS011;22004;49.120;-0.200;2023-07-20T10:23:31;3.72;;;2.15;;
35909;SDS011;22004;49.120;-0.200;2023-07-20T10:25:58;5.00;;;1.90;;
35909;SDS011;22004;49.120;-0.200;2023-07-20T10:28:24;8.23;;;2.95;;
35909;SDS011;22004;49.120;-0.200;2023-07-20T10:30:49;6.07;;;1.90;;
35909;SDS011;22004;49.120;-0.200;2023-07-20T10:33:16;6.30;;;1.88;;
35909;SDS011;22004;49.120;-0.200;2023-07-20T10:35:53;5.55;;;1.83;;
35909;SDS011;22004;49.120;-0.200;2023-07-20T10:38:19;3.45;;;1.60;;
35909;SDS011;22004;49.120;-0.200;2023-07-20T10:40:54;8.88;;;1.77;;
35909;SDS011;22004;49.120;-0.200;2023-07-20T10:43:20;4.25;;;1.70;;
35909;SDS011;22004;49.120;-0.200;2023-07-20T10:45:49;4.03;;;1.70;;
35909;SDS011;22004;49.120;-0.200;2023-07-20T10:50:44;7.57;;;1.80;;
35909;SDS011;22004;49.120;-0.200;2023-07-20T10:53:12;12.00;;;1.60;;
35909;SDS011;22004;49.120;-0.200;2023-07-20T10:55:39;5.82;;;1.45;;
35909;SDS011;22004;49.120;-0.200;2023-07-20T10:58:09;3.55;;;1.60;;
35909;SDS011;22004;49.120;-0.200;2023-07-20T11:00:58;5.75;;;1.50;;
35909;SDS011;22004;49.120;-0.200;2023-07-20T11:03:38;7.10;;;1.70;;
35909;SDS011;22004;49.120;-0.200;2023-07-20T11:08:48;3.33;;;1.63;;
35909;SDS011;22004;49.120;-0.200;2023-07-20T11:11:26;6.22;;;1.98;;
35909;SDS011;22004;49.120;-0.200;2023-07-20T11:13:59;6.85;;;2.10;;
35909;SDS011;22004;49.120;-0.200;2023-07-20T11:16:36;9.13;;;2.22;;
35909;SDS011;22004;49.120;-0.200;2023-07-20T11:19:05;3.75;;;1.98;;
35909;SDS011;22004;49.120;-0.200;2023-07-20T11:21:40;3.20;;;1.67;;
35909;SDS011;22004;49.120;-0.200;2023-07-20T11:24:07;2.22;;;1.60;;
35909;SDS011;22004;49.120;-0.200;2023-07-20T11:26:44;3.42;;;2.53;;
35909;SDS011;22004;49.120;-0.200;2023-07-20T11:29:13;6.53;;;2.10;;
35909;SDS011;22004;49.120;-0.200;2023-07-20T11:31:41;8.40;;;2.55;;
35909;SDS011;22004;49.120;-0.200;2023-07-20T11:34:10;6.07;;;2.63;;
35909;SDS011;22004;49.120;-0.200;2023-07-20T11:36:40;4.57;;;1.90;;
35909;SDS011;22004;49.120;-0.200;2023-07-20T11:39:08;4.30;;;1.55;;
35909;SDS011;22004;49.120;-0.200;2023-07-20T11:41:34;3.60;;;1.92;;
35909;SDS011;22004;49.120;-0.200;2023-07-20T11:43:59;4.88;;;1.90;;
35909;SDS011;22004;49.120;-0.200;2023-07-20T11:46:25;16.33;;;2.88;;
35909;SDS011;22004;49.120;-0.200;2023-07-20T11:48:56;8.18;;;2.97;;
35909;SDS011;22004;49.120;-0.200;2023-07-20T11:51:23;4.07;;;2.25;;
35909;SDS011;22004;49.120;-0.200;2023-07-20T11:53:49;8.98;;;2.10;;
35909;SDS011;22004;49.120;-0.200;2023-07-20T11:56:15;5.82;;;2.20;;
35909;SDS011;22004;49.120;-0.200;2023-07-20T11:58:43;4.75;;;2.55;;
35909;SDS011;22004;49.120;-0.200;2023-07-20T12:01:09;9.73;;;2.35;;
35909;SDS011;22004;49.120;-0.200;2023-07-20T12:03:36;8.85;;;2.78;;
35909;SDS011;22004;49.120;-0.200;2023-07-20T12:06:08;5.00;;;1.70;;
35909;SDS011;22004;49.120;-0.200;2023-07-20T12:08:40;3.97;;;1.97;;
35909;SDS011;22004;49.120;-0.200;2023-07-20T12:11:07;3.60;;;1.98;;
35909;SDS011;22004;49.120;-0.200;2023-07-20T12:13:36;2.97;;;1.80;;
35909;SDS011;22004;49.120;-0.200;2023-07-20T12:16:12;5.22;;;2.03;;
35909;SDS011;22004;49.120;-0.200;2023-07-20T12:18:42;3.80;;;1.83;;
35909;SDS011;22004;49.120;-0.200;2023-07-20T12:21:09;4.18;;;1.80;;
35909;SDS011;22004;49.120;-0.200;2023-07-20T12:23:38;4.97;;;1.70;;
35909;SDS011;22004;49.120;-0.200;2023-07-20T12:26:08;4.25;;;1.98;;
35909;SDS011;22004;49.120;-0.200;2023-07-20T12:28:40;6.93;;;1.58;;
35909;SDS011;22004;49.120;-0.200;2023-07-20T12:31:07;5.60;;;1.45;;
35909;SDS011;22004;49.120;-0.200;2023-07-20T12:33:36;3.95;;;1.80;;
35909;SDS011;22004;49.120;-0.200;2023-07-20T12:36:02;4.72;;;1.83;;
35909;SDS011;22004;49.120;-0.200;2023-07-20T12:38:29;8.32;;;1.85;;
35909;SDS011;22004;49.120;-0.200;2023-07-20T12:40:55;4.03;;;1.70;;
35909;SDS011;22004;49.120;-0.200;2023-07-20T12:43:21;6.00;;;1.80;;
35909;SDS011;22004;49.120;-0.200;2023-07-20T12:45:46;4.50;;;2.10;;
35909;SDS011;22004;49.120;-0.200;2023-07-20T12:48:12;2.50;;;1.70;;
35909;SDS011;22004;49.120;-0.200;2023-07-20T12:50:37;3.05;;;1.58;;
35909;SDS011;22004;49.120;-0.200;2023-07-20T12:53:03;3.55;;;1.80;;
35909;SDS011;22004;49.120;-0.200;2023-07-20T12:55:28;6.35;;;1.30;;
35909;SDS011;22004;49.120;-0.200;2023-07-20T12:57:54;2.95;;;1.65;;
35909;SDS011;22004;49.120;-0.200;2023-07-20T13:00:20;2.30;;;1.35;;
35909;SDS011;22004;49.120;-0.200;2023-07-20T13:02:48;2.30;;;1.77;;
35909;SDS011;22004;49.120;-0.200;2023-07-20T13:05:13;4.53;;;1.60;;
35909;SDS011;22004;49.120;-0.200;2023-07-20T13:07:40;4.38;;;1.38;;
35909;SDS011;22004;49.120;-0.200;2023-07-20T13:10:06;3.17;;;1.65;;
35909;SDS011;22004;49.120;-0.200;2023-07-20T13:12:33;5.65;;;1.80;;
35909;SDS011;22004;49.120;-0.200;2023-07-20T13:15:01;5.57;;;1.33;;
35909;SDS011;22004;49.120;-0.200;2023-07-20T13:17:33;4.10;;;1.45;;
35909;SDS011;22004;49.120;-0.200;2023-07-20T13:20:04;1.73;;;1.63;;
35909;SDS011;22004;49.120;-0.200;2023-07-20T13:22:35;3.22;;;1.50;;
35909;SDS011;22004;49.120;-0.200;2023-07-20T13:25:00;5.20;;;1.52;;
35909;SDS011;22004;49.120;-0.200;2023-07-20T13:27:26;2.88;;;1.90;;
35909;SDS011;22004;49.120;-0.200;2023-07-20T13:29:52;3.83;;;1.23;;
35909;SDS011;22004;49.120;-0.200;2023-07-20T13:32:17;1.40;;;1.20;;
35909;SDS011;22004;49.120;-0.200;2023-07-20T13:34:43;2.47;;;1.30;;
35909;SDS011;22004;49.120;-0.200;2023-07-20T13:37:11;1.98;;;1.20;;
35909;SDS011;22004;49.120;-0.200;2023-07-20T13:39:37;3.42;;;1.58;;
35909;SDS011;22004;49.120;-0.200;2023-07-20T13:42:03;6.03;;;1.50;;
35909;SDS011;22004;49.120;-0.200;2023-07-20T13:44:30;2.63;;;1.25;;
35909;SDS011;22004;49.120;-0.200;2023-07-20T13:46:56;4.40;;;1.38;;
35909;SDS011;22004;49.120;-0.200;2023-07-20T13:49:22;3.65;;;1.60;;
35909;SDS011;22004;49.120;-0.200;2023-07-20T13:51:47;2.97;;;1.50;;
35909;SDS011;22004;49.120;-0.200;2023-07-20T13:54:13;2.55;;;1.42;;
35909;SDS011;22004;49.120;-0.200;2023-07-20T13:56:38;6.68;;;1.40;;
35909;SDS011;22004;49.120;-0.200;2023-07-20T13:59:04;1.40;;;1.30;;
35909;SDS011;22004;49.120;-0.200;2023-07-20T14:01:29;3.50;;;1.45;;
35909;SDS011;22004;49.120;-0.200;2023-07-20T14:03:56;5.85;;;1.60;;
35909;SDS011;22004;49.120;-0.200;2023-07-20T14:06:21;2.53;;;1.30;;
35909;SDS011;22004;49.120;-0.200;2023-07-20T14:08:47;3.92;;;1.50;;
35909;SDS011;22004;49.120;-0.200;2023-07-20T14:11:14;3.22;;;2.20;;
35909;SDS011;22004;49.120;-0.200;2023-07-20T14:13:40;3.55;;;1.33;;
35909;SDS011;22004;49.120;-0.200;2023-07-20T14:16:05;3.13;;;1.27;;
35909;SDS011;22004;49.120;-0.200;2023-07-20T14:18:31;2.42;;;1.45;;
35909;SDS011;22004;49.120;-0.200;2023-07-20T14:20:56;4.90;;;1.40;;
35909;SDS011;22004;49.120;-0.200;2023-07-20T14:23:21;4.22;;;1.27;;
35909;SDS011;22004;49.120;-0.200;2023-07-20T14:25:47;2.13;;;1.50;;
35909;SDS011;22004;49.120;-0.200;2023-07-20T14:28:13;2.35;;;1.42;;
35909;SDS011;22004;49.120;-0.200;2023-07-20T14:30:39;3.05;;;1.67;;
35909;SDS011;22004;49.120;-0.200;2023-07-20T14:33:05;3.33;;;1.60;;
35909;SDS011;22004;49.120;-0.200;2023-07-20T14:35:30;2.60;;;1.50;;
35909;SDS011;22004;49.120;-0.200;2023-07-20T14:37:56;4.30;;;1.40;;
35909;SDS011;22004;49.120;-0.200;2023-07-20T14:40:21;2.75;;;1.40;;
35909;SDS011;22004;49.120;-0.200;2023-07-20T14:42:46;2.75;;;1.30;;
35909;SDS011;22004;49.120;-0.200;2023-07-20T14:45:12;2.40;;;1.33;;
35909;SDS011;22004;49.120;-0.200;2023-07-20T14:47:37;4.28;;;1.88;;
35909;SDS011;22004;49.120;-0.200;2023-07-20T14:50:03;4.72;;;1.40;;